sensor_id;sensor_type;location;lat;lon;timestamp;P1;durP1;ratioP1;P2;durP2;ratioP2
41343;SDS011;27089;50.022;7.604;2024-03-23T00:55:38;42.47;;;23.50;;
41343;SDS011;27089;50.022;7.604;2024-03-23T00:58:05;52.30;;;25.30;;
41343;SDS011;27089;50.022;7.604;2024-03-23T01:00:31;48.73;;;24.27;;
41343;SDS011;27089;50.022;7.604;2024-03-23T01:02:58;53.57;;;25.87;;
41343;SDS011;27089;50.022;7.604;2024-03-23T01:05:24;53.83;;;24.83;;
41343;SDS011;27089;50.022;7.604;2024-03-23T01:07:51;51.07;;;24.73;;
41343;SDS011;27089;50.022;7.604;2024-03-23T01:10:17;49.17;;;22.17;;
41343;SDS011;27089;50.022;7.604;2024-03-23T01:12:45;33.80;;;18.87;;
41343;SDS011;27089;50.022;7.604;2024-03-23T01:15:11;38.80;;;19.80;;
41343;SDS011;27089;50.022;7.604;2024-03-23T01:17:38;33.20;;;18.00;;
41343;SDS011;27089;50.022;7.604;2024-03-23T01:20:05;35.97;;;18.67;;
41343;SDS011;27089;50.022;7.604;2024-03-23T01:22:33;36.97;;;19.20;;
41343;SDS011;27089;50.022;7.604;2024-03-23T01:24:59;35.20;;;19.87;;
41343;SDS011;27089;50.022;7.604;2024-03-23T01:27:26;31.20;;;18.10;;
41343;SDS011;27089;50.022;7.604;2024-03-23T01:29:53;32.93;;;17.63;;
41343;SDS011;27089;50.022;7.604;2024-03-23T01:32:20;31.03;;;17.63;;
41343;SDS011;27089;50.022;7.604;2024-03-23T01:34:46;28.23;;;16.77;;
41343;SDS011;27089;50.022;7.604;2024-03-23T01:37:13;29.87;;;16.60;;
41343;SDS011;27089;50.022;7.604;2024-03-23T01:39:39;27.60;;;15.87;;
41343;SDS011;27089;50.022;7.604;2024-03-23T01:42:06;29.97;;;15.87;;
41343;SDS011;27089;50.022;7.604;2024-03-23T01:44:32;27.63;;;16.23;;
41343;SDS011;27089;50.022;7.604;2024-03-23T01:47:00;24.90;;;14.70;;
41343;SDS011;27089;50.022;7.604;2024-03-23T01:49:27;24.77;;;14.10;;
41343;SDS011;27089;50.022;7.604;2024-03-23T01:51:54;25.43;;;15.20;;
41343;SDS011;27089;50.022;7.604;2024-03-23T01:54:20;22.67;;;13.70;;
41343;SDS011;27089;50.022;7.604;2024-03-23T01:56:49;23.33;;;13.23;;
41343;SDS011;27089;50.022;7.604;2024-03-23T01:59:15;24.50;;;13.27;;
41343;SDS011;27089;50.022;7.604;2024-03-23T02:01:42;24.50;;;12.87;;
41343;SDS011;27089;50.022;7.604;2024-03-23T02:04:09;18.50;;;11.70;;
41343;SDS011;27089;50.022;7.604;2024-03-23T02:06:36;19.77;;;11.80;;
41343;SDS011;27089;50.022;7.604;2024-03-23T02:09:02;19.67;;;12.33;;
41343;SDS011;27089;50.022;7.604;2024-03-23T02:11:30;28.90;;;15.83;;
41343;SDS011;27089;50.022;7.604;2024-03-23T02:13:56;28.30;;;16.77;;
41343;SDS011;27089;50.022;7.604;2024-03-23T02:16:23;26.67;;;16.67;;
41343;SDS011;27089;50.022;7.604;2024-03-23T02:18:49;23.70;;;15.87;;
41343;SDS011;27089;50.022;7.604;2024-03-23T02:21:17;26.23;;;15.13;;
41343;SDS011;27089;50.022;7.604;2024-03-23T02:23:45;28.00;;;16.13;;
41343;SDS011;27089;50.022;7.604;2024-03-23T02:26:12;21.07;;;12.80;;
41343;SDS011;27089;50.022;7.604;2024-03-23T02:28:39;20.87;;;12.40;;
41343;SDS011;27089;50.022;7.604;2024-03-23T02:31:06;20.33;;;12.53;;
41343;SDS011;27089;50.022;7.604;2024-03-23T02:33:32;22.10;;;12.83;;
41343;SDS011;27089;50.022;7.604;2024-03-23T02:36:03;23.40;;;13.50;;
41343;SDS011;27089;50.022;7.604;2024-03-23T02:38:29;22.17;;;12.53;;
41343;SDS011;27089;50.022;7.604;2024-03-23T02:41:02;21.87;;;12.73;;
41343;SDS011;27089;50.022;7.604;2024-03-23T02:43:28;21.03;;;12.97;;
41343;SDS011;27089;50.022;7.604;2024-03-23T02:45:55;21.43;;;12.37;;
41343;SDS011;27089;50.022;7.604;2024-03-23T02:48:22;20.37;;;12.07;;
41343;SDS011;27089;50.022;7.604;2024-03-23T02:50:49;18.60;;;12.30;;
41343;SDS011;27089;50.022;7.604;2024-03-23T02:53:15;19.30;;;12.60;;
41343;SDS011;27089;50.022;7.604;2024-03-23T02:55:42;17.00;;;11.00;;
41343;SDS011;27089;50.022;7.604;2024-03-23T02:58:09;21.90;;;11.83;;
41343;SDS011;27089;50.022;7.604;2024-03-23T03:00:36;14.73;;;9.60;;
41343;SDS011;27089;50.022;7.604;2024-03-23T03:03:03;10.50;;;6.77;;
41343;SDS011;27089;50.022;7.604;2024-03-23T03:05:30;8.60;;;6.23;;
41343;SDS011;27089;50.022;7.604;2024-03-23T03:07:56;6.53;;;5.30;;
41343;SDS011;27089;50.022;7.604;2024-03-23T03:10:23;6.17;;;5.43;;
41343;SDS011;27089;50.022;7.604;2024-03-23T03:12:49;6.10;;;4.93;;
41343;SDS011;27089;50.022;7.604;2024-03-23T03:15:17;4.40;;;3.63;;
41343;SDS011;27089;50.022;7.604;2024-03-23T03:17:43;4.40;;;4.00;;
41343;SDS011;27089;50.022;7.604;2024-03-23T03:20:11;4.87;;;3.73;;
41343;SDS011;27089;50.022;7.604;2024-03-23T03:22:39;4.17;;;3.03;;
41343;SDS011;27089;50.022;7.604;2024-03-23T03:25:06;4.33;;;3.20;;
41343;SDS011;27089;50.022;7.604;2024-03-23T03:27:32;3.63;;;2.30;;
41343;SDS011;27089;50.022;7.604;2024-03-23T03:29:59;3.13;;;2.53;;
41343;SDS011;27089;50.022;7.604;2024-03-23T03:32:28;4.90;;;3.40;;
41343;SDS011;27089;50.022;7.604;2024-03-23T03:34:55;4.37;;;2.83;;
41343;SDS011;27089;50.022;7.604;2024-03-23T03:37:21;4.50;;;2.73;;
41343;SDS011;27089;50.022;7.604;2024-03-23T03:39:48;3.37;;;2.93;;
41343;SDS011;27089;50.022;7.604;2024-03-23T03:42:14;3.67;;;2.70;;
41343;SDS011;27089;50.022;7.604;2024-03-23T03:44:41;3.53;;;2.50;;
41343;SDS011;27089;50.022;7.604;2024-03-23T03:47:07;3.23;;;2.70;;
41343;SDS011;27089;50.022;7.604;2024-03-23T03:49:36;7.47;;;4.90;;
41343;SDS011;27089;50.022;7.604;2024-03-23T03:52:02;22.00;;;12.17;;
41343;SDS011;27089;50.022;7.604;2024-03-23T03:54:29;5.83;;;3.53;;
41343;SDS011;27089;50.022;7.604;2024-03-23T03:56:55;4.73;;;4.33;;
41343;SDS011;27089;50.022;7.604;2024-03-23T03:59:22;4.97;;;3.90;;
41343;SDS011;27089;50.022;7.604;2024-03-23T04:01:48;5.33;;;3.57;;
41343;SDS011;27089;50.022;7.604;2024-03-23T04:04:15;4.20;;;3.20;;
41343;SDS011;27089;50.022;7.604;2024-03-23T04:06:43;3.87;;;3.03;;
41343;SDS011;27089;50.022;7.604;2024-03-23T04:09:10;5.43;;;3.70;;
41343;SDS011;27089;50.022;7.604;2024-03-23T04:11:36;3.77;;;3.13;;
41343;SDS011;27089;50.022;7.604;2024-03-23T04:14:03;5.00;;;3.57;;
41343;SDS011;27089;50.022;7.604;2024-03-23T04:16:29;4.70;;;3.67;;
41343;SDS011;27089;50.022;7.604;2024-03-23T04:18:59;5.83;;;4.30;;
41343;SDS011;27089;50.022;7.604;2024-03-23T04:21:25;5.80;;;5.00;;
41343;SDS011;27089;50.022;7.604;2024-03-23T04:23:54;7.47;;;4.00;;
41343;SDS011;27089;50.022;7.604;2024-03-23T04:26:20;4.73;;;3.90;;
41343;SDS011;27089;50.022;7.604;2024-03-23T04:28:47;5.83;;;4.10;;
41343;SDS011;27089;50.022;7.604;2024-03-23T04:31:13;6.00;;;4.33;;
41343;SDS011;27089;50.022;7.604;2024-03-23T04:33:40;4.50;;;3.30;;
41343;SDS011;27089;50.022;7.604;2024-03-23T04:36:06;2.80;;;2.50;;
41343;SDS011;27089;50.022;7.604;2024-03-23T04:38:35;2.67;;;2.00;;
41343;SDS011;27089;50.022;7.604;2024-03-23T04:41:03;1.83;;;1.50;;
41343;SDS011;27089;50.022;7.604;2024-03-23T04:43:30;2.33;;;1.17;;
41343;SDS011;27089;50.022;7.604;2024-03-23T04:45:57;2.10;;;1.33;;
41343;SDS011;27089;50.022;7.604;2024-03-23T04:48:24;1.40;;;1.10;;
41343;SDS011;27089;50.022;7.604;2024-03-23T04:50:54;1.30;;;1.10;;
41343;SDS011;27089;50.022;7.604;2024-03-23T04:53:22;1.83;;;0.80;;
41343;SDS011;27089;50.022;7.604;2024-03-23T04:55:53;1.40;;;1.00;;
41343;SDS011;27089;50.022;7.604;2024-03-23T04:58:21;1.07;;;0.80;;
41343;SDS011;27089;50.022;7.604;2024-03-23T05:00:48;0.80;;;0.70;;
41343;SDS011;27089;50.022;7.604;2024-03-23T05:03:20;0.70;;;0.70;;
41343;SDS011;27089;50.022;7.604;2024-03-23T05:05:46;0.77;;;0.70;;
41343;SDS011;27089;50.022;7.604;2024-03-23T05:08:13;0.77;;;0.70;;
41343;SDS011;27089;50.022;7.604;2024-03-23T05:10:40;3.73;;;0.70;;
41343;SDS011;27089;50.022;7.604;2024-03-23T05:13:07;0.93;;;0.83;;
41343;SDS011;27089;50.022;7.604;2024-03-23T05:15:35;1.03;;;0.70;;
41343;SDS011;27089;50.022;7.604;2024-03-23T05:18:02;0.97;;;0.73;;
41343;SDS011;27089;50.022;7.604;2024-03-23T05:20:30;1.10;;;0.90;;
41343;SDS011;27089;50.022;7.604;2024-03-23T05:22:57;0.77;;;0.77;;
41343;SDS011;27089;50.022;7.604;2024-03-23T05:25:23;1.00;;;0.90;;
41343;SDS011;27089;50.022;7.604;2024-03-23T05:27:50;0.80;;;0.80;;
41343;SDS011;27089;50.022;7.604;2024-03-23T05:30:16;0.87;;;0.80;;
41343;SDS011;27089;50.022;7.604;2024-03-23T05:32:44;1.30;;;0.80;;
41343;SDS011;27089;50.022;7.604;2024-03-23T05:35:10;1.00;;;0.83;;
41343;SDS011;27089;50.022;7.604;2024-03-23T05:37:37;0.63;;;0.63;;
41343;SDS011;27089;50.022;7.604;2024-03-23T05:40:04;1.20;;;0.90;;
41343;SDS011;27089;50.022;7.604;2024-03-23T05:42:31;1.10;;;0.70;;
41343;SDS011;27089;50.022;7.604;2024-03-23T05:44:57;1.23;;;0.90;;
41343;SDS011;27089;50.022;7.604;2024-03-23T05:47:24;2.07;;;1.00;;
41343;SDS011;27089;50.022;7.604;2024-03-23T05:49:52;1.93;;;0.90;;
41343;SDS011;27089;50.022;7.604;2024-03-23T05:52:19;1.50;;;1.00;;
41343;SDS011;27089;50.022;7.604;2024-03-23T05:54:47;1.67;;;1.27;;
41343;SDS011;27089;50.022;7.604;2024-03-23T05:57:13;2.20;;;1.47;;
41343;SDS011;27089;50.022;7.604;2024-03-23T05:59:40;2.37;;;1.70;;
41343;SDS011;27089;50.022;7.604;2024-03-23T06:02:06;5.17;;;2.40;;
41343;SDS011;27089;50.022;7.604;2024-03-23T06:04:35;3.33;;;2.13;;
41343;SDS011;27089;50.022;7.604;2024-03-23T06:07:03;2.83;;;2.40;;
41343;SDS011;27089;50.022;7.604;2024-03-23T06:09:31;5.30;;;2.80;;
41343;SDS011;27089;50.022;7.604;2024-03-23T06:11:57;7.03;;;3.37;;
41343;SDS011;27089;50.022;7.604;2024-03-23T06:14:25;6.53;;;3.43;;
41343;SDS011;27089;50.022;7.604;2024-03-23T06:16:51;6.47;;;4.33;;
41343;SDS011;27089;50.022;7.604;2024-03-23T06:19:18;7.33;;;4.10;;
41343;SDS011;27089;50.022;7.604;2024-03-23T06:21:44;6.97;;;3.80;;
41343;SDS011;27089;50.022;7.604;2024-03-23T06:24:12;7.87;;;3.80;;
41343;SDS011;27089;50.022;7.604;2024-03-23T06:26:38;6.57;;;4.00;;
41343;SDS011;27089;50.022;7.604;2024-03-23T06:29:05;8.17;;;3.50;;
41343;SDS011;27089;50.022;7.604;2024-03-23T06:31:33;6.37;;;3.47;;
41343;SDS011;27089;50.022;7.604;2024-03-23T06:33:59;6.37;;;3.10;;
41343;SDS011;27089;50.022;7.604;2024-03-23T06:36:26;4.83;;;3.07;;
41343;SDS011;27089;50.022;7.604;2024-03-23T06:38:52;7.37;;;3.63;;
41343;SDS011;27089;50.022;7.604;2024-03-23T06:41:21;4.43;;;2.50;;
41343;SDS011;27089;50.022;7.604;2024-03-23T06:43:47;5.27;;;2.90;;
41343;SDS011;27089;50.022;7.604;2024-03-23T06:46:14;2.80;;;2.17;;
41343;SDS011;27089;50.022;7.604;2024-03-23T06:48:40;3.80;;;2.73;;
41343;SDS011;27089;50.022;7.604;2024-03-23T06:51:07;3.33;;;2.20;;
41343;SDS011;27089;50.022;7.604;2024-03-23T06:53:34;4.07;;;1.67;;
41343;SDS011;27089;50.022;7.604;2024-03-23T06:56:01;4.27;;;2.20;;
41343;SDS011;27089;50.022;7.604;2024-03-23T06:58:36;4.33;;;2.57;;
41343;SDS011;27089;50.022;7.604;2024-03-23T07:01:03;5.83;;;2.80;;
41343;SDS011;27089;50.022;7.604;2024-03-23T07:03:29;5.87;;;2.73;;
41343;SDS011;27089;50.022;7.604;2024-03-23T07:05:57;7.07;;;2.90;;
41343;SDS011;27089;50.022;7.604;2024-03-23T07:08:23;6.53;;;3.67;;
41343;SDS011;27089;50.022;7.604;2024-03-23T07:10:50;8.53;;;3.87;;
41343;SDS011;27089;50.022;7.604;2024-03-23T07:13:16;8.77;;;4.10;;
41343;SDS011;27089;50.022;7.604;2024-03-23T07:15:49;6.90;;;3.90;;
41343;SDS011;27089;50.022;7.604;2024-03-23T07:18:17;6.00;;;3.10;;
41343;SDS011;27089;50.022;7.604;2024-03-23T07:20:51;5.27;;;3.07;;
41343;SDS011;27089;50.022;7.604;2024-03-23T07:23:18;4.97;;;2.17;;
41343;SDS011;27089;50.022;7.604;2024-03-23T07:25:45;5.77;;;2.30;;
41343;SDS011;27089;50.022;7.604;2024-03-23T07:28:21;7.20;;;2.20;;
41343;SDS011;27089;50.022;7.604;2024-03-23T07:30:49;4.97;;;1.50;;
41343;SDS011;27089;50.022;7.604;2024-03-23T07:33:28;5.57;;;1.50;;
41343;SDS011;27089;50.022;7.604;2024-03-23T07:35:55;3.73;;;1.80;;
41343;SDS011;27089;50.022;7.604;2024-03-23T07:38:21;5.80;;;2.33;;
41343;SDS011;27089;50.022;7.604;2024-03-23T07:40:48;6.40;;;2.27;;
41343;SDS011;27089;50.022;7.604;2024-03-23T07:43:15;5.17;;;1.87;;
41343;SDS011;27089;50.022;7.604;2024-03-23T07:45:42;4.80;;;1.90;;
41343;SDS011;27089;50.022;7.604;2024-03-23T07:48:09;4.77;;;1.97;;
41343;SDS011;27089;50.022;7.604;2024-03-23T07:50:36;6.97;;;2.40;;
41343;SDS011;27089;50.022;7.604;2024-03-23T07:53:02;4.90;;;2.33;;
41343;SDS011;27089;50.022;7.604;2024-03-23T07:55:29;5.73;;;2.50;;
41343;SDS011;27089;50.022;7.604;2024-03-23T07:57:55;6.40;;;2.20;;
41343;SDS011;27089;50.022;7.604;2024-03-23T08:00:22;5.30;;;2.37;;
41343;SDS011;27089;50.022;7.604;2024-03-23T08:02:50;5.23;;;2.13;;
41343;SDS011;27089;50.022;7.604;2024-03-23T08:05:19;8.50;;;2.73;;
41343;SDS011;27089;50.022;7.604;2024-03-23T08:07:45;5.10;;;2.47;;
41343;SDS011;27089;50.022;7.604;2024-03-23T08:10:12;5.97;;;2.30;;
41343;SDS011;27089;50.022;7.604;2024-03-23T08:12:38;6.30;;;2.70;;
41343;SDS011;27089;50.022;7.604;2024-03-23T08:15:05;6.18;;;2.40;;
41343;SDS011;27089;50.022;7.604;2024-03-23T08:17:32;5.25;;;2.40;;
41343;SDS011;27089;50.022;7.604;2024-03-23T08:19:59;7.32;;;3.05;;
41343;SDS011;27089;50.022;7.604;2024-03-23T08:22:26;5.20;;;2.40;;
41343;SDS011;27089;50.022;7.604;2024-03-23T08:24:53;4.55;;;2.53;;
41343;SDS011;27089;50.022;7.604;2024-03-23T08:27:19;6.45;;;2.35;;
41343;SDS011;27089;50.022;7.604;2024-03-23T08:29:46;6.55;;;3.13;;
41343;SDS011;27089;50.022;7.604;2024-03-23T08:32:12;6.85;;;3.05;;
41343;SDS011;27089;50.022;7.604;2024-03-23T08:34:39;4.45;;;2.70;;
41343;SDS011;27089;50.022;7.604;2024-03-23T08:37:05;7.90;;;3.00;;
41343;SDS011;27089;50.022;7.604;2024-03-23T08:39:34;6.07;;;2.63;;
41343;SDS011;27089;50.022;7.604;2024-03-23T08:42:00;6.10;;;2.70;;
41343;SDS011;27089;50.022;7.604;2024-03-23T08:44:27;5.20;;;2.60;;
41343;SDS011;27089;50.022;7.604;2024-03-23T08:46:55;6.82;;;2.72;;
41343;SDS011;27089;50.022;7.604;2024-03-23T08:49:22;5.97;;;2.40;;
41343;SDS011;27089;50.022;7.604;2024-03-23T08:51:48;6.25;;;2.33;;
41343;SDS011;27089;50.022;7.604;2024-03-23T08:54:15;6.05;;;2.20;;
41343;SDS011;27089;50.022;7.604;2024-03-23T08:56:42;7.25;;;2.80;;
41343;SDS011;27089;50.022;7.604;2024-03-23T08:59:09;7.75;;;2.80;;
41343;SDS011;27089;50.022;7.604;2024-03-23T09:01:36;7.93;;;2.70;;
41343;SDS011;27089;50.022;7.604;2024-03-23T09:04:03;7.07;;;3.35;;
41343;SDS011;27089;50.022;7.604;2024-03-23T09:06:29;8.15;;;3.70;;
41343;SDS011;27089;50.022;7.604;2024-03-23T09:08:56;9.80;;;4.43;;
41343;SDS011;27089;50.022;7.604;2024-03-23T09:11:22;3.95;;;2.88;;
41343;SDS011;27089;50.022;7.604;2024-03-23T09:13:51;6.60;;;2.37;;
41343;SDS011;27089;50.022;7.604;2024-03-23T09:16:17;8.53;;;3.03;;
41343;SDS011;27089;50.022;7.604;2024-03-23T09:18:44;5.33;;;2.90;;
41343;SDS011;27089;50.022;7.604;2024-03-23T09:21:11;6.33;;;2.70;;
41343;SDS011;27089;50.022;7.604;2024-03-23T09:23:39;9.33;;;3.40;;
41343;SDS011;27089;50.022;7.604;2024-03-23T09:26:06;8.20;;;3.03;;
41343;SDS011;27089;50.022;7.604;2024-03-23T09:28:33;8.10;;;3.27;;
41343;SDS011;27089;50.022;7.604;2024-03-23T09:31:03;8.03;;;2.83;;
41343;SDS011;27089;50.022;7.604;2024-03-23T09:33:31;8.97;;;3.47;;
41343;SDS011;27089;50.022;7.604;2024-03-23T09:35:57;7.17;;;2.00;;
41343;SDS011;27089;50.022;7.604;2024-03-23T09:38:29;5.53;;;2.00;;
41343;SDS011;27089;50.022;7.604;2024-03-23T09:40:55;4.03;;;1.70;;
41343;SDS011;27089;50.022;7.604;2024-03-23T09:43:23;3.70;;;1.87;;
41343;SDS011;27089;50.022;7.604;2024-03-23T09:45:49;6.27;;;1.93;;
41343;SDS011;27089;50.022;7.604;2024-03-23T09:48:19;5.30;;;2.10;;
41343;SDS011;27089;50.022;7.604;2024-03-23T09:50:45;4.17;;;2.30;;
41343;SDS011;27089;50.022;7.604;2024-03-23T09:53:14;4.60;;;3.00;;
41343;SDS011;27089;50.022;7.604;2024-03-23T09:55:40;5.43;;;2.13;;
41343;SDS011;27089;50.022;7.604;2024-03-23T09:58:11;3.83;;;1.83;;
41343;SDS011;27089;50.022;7.604;2024-03-23T10:00:38;4.97;;;1.83;;
41343;SDS011;27089;50.022;7.604;2024-03-23T10:03:05;3.20;;;1.40;;
41343;SDS011;27089;50.022;7.604;2024-03-23T10:05:33;6.50;;;1.87;;
41343;SDS011;27089;50.022;7.604;2024-03-23T10:08:00;6.93;;;1.83;;
41343;SDS011;27089;50.022;7.604;2024-03-23T10:10:43;4.03;;;2.00;;
41343;SDS011;27089;50.022;7.604;2024-03-23T10:13:11;3.73;;;1.83;;
41343;SDS011;27089;50.022;7.604;2024-03-23T10:15:48;3.43;;;1.60;;
41343;SDS011;27089;50.022;7.604;2024-03-23T10:18:21;4.23;;;1.80;;
41343;SDS011;27089;50.022;7.604;2024-03-23T10:20:50;4.30;;;2.20;;
41343;SDS011;27089;50.022;7.604;2024-03-23T10:23:19;13.80;;;8.30;;
41343;SDS011;27089;50.022;7.604;2024-03-23T10:25:45;4.47;;;2.43;;
41343;SDS011;27089;50.022;7.604;2024-03-23T10:28:12;8.20;;;3.43;;
41343;SDS011;27089;50.022;7.604;2024-03-23T10:30:38;10.87;;;4.67;;
41343;SDS011;27089;50.022;7.604;2024-03-23T10:33:09;6.27;;;2.60;;
41343;SDS011;27089;50.022;7.604;2024-03-23T10:35:36;5.93;;;3.27;;
41343;SDS011;27089;50.022;7.604;2024-03-23T10:38:06;6.13;;;3.00;;
41343;SDS011;27089;50.022;7.604;2024-03-23T10:40:34;5.90;;;3.37;;
41343;SDS011;27089;50.022;7.604;2024-03-23T10:43:02;10.53;;;3.33;;
41343;SDS011;27089;50.022;7.604;2024-03-23T10:45:29;5.63;;;2.73;;
41343;SDS011;27089;50.022;7.604;2024-03-23T10:47:57;6.13;;;2.87;;
41343;SDS011;27089;50.022;7.604;2024-03-23T10:50:23;5.23;;;2.73;;
41343;SDS011;27089;50.022;7.604;2024-03-23T10:52:50;8.53;;;3.20;;
41343;SDS011;27089;50.022;7.604;2024-03-23T10:55:21;6.57;;;3.13;;
41343;SDS011;27089;50.022;7.604;2024-03-23T10:57:50;6.73;;;2.87;;
41343;SDS011;27089;50.022;7.604;2024-03-23T11:00:19;7.30;;;3.20;;
41343;SDS011;27089;50.022;7.604;2024-03-23T11:02:48;9.93;;;3.90;;
41343;SDS011;27089;50.022;7.604;2024-03-23T11:05:29;5.83;;;3.40;;
41343;SDS011;27089;50.022;7.604;2024-03-23T11:07:57;8.53;;;3.23;;
41343;SDS011;27089;50.022;7.604;2024-03-23T11:10:28;9.10;;;3.57;;
41343;SDS011;27089;50.022;7.604;2024-03-23T11:12:56;9.23;;;3.60;;
41343;SDS011;27089;50.022;7.604;2024-03-23T11:15:22;6.20;;;3.13;;
41343;SDS011;27089;50.022;7.604;2024-03-23T11:18:02;8.53;;;3.00;;
41343;SDS011;27089;50.022;7.604;2024-03-23T11:20:31;6.07;;;3.07;;
41343;SDS011;27089;50.022;7.604;2024-03-23T11:23:01;7.40;;;3.33;;
41343;SDS011;27089;50.022;7.604;2024-03-23T11:25:29;7.17;;;3.33;;
41343;SDS011;27089;50.022;7.604;2024-03-23T11:27:56;8.33;;;3.57;;
41343;SDS011;27089;50.022;7.604;2024-03-23T11:30:24;9.60;;;3.47;;
41343;SDS011;27089;50.022;7.604;2024-03-23T11:32:52;7.40;;;3.10;;
41343;SDS011;27089;50.022;7.604;2024-03-23T11:35:29;6.60;;;3.30;;
41343;SDS011;27089;50.022;7.604;2024-03-23T11:38:04;7.50;;;3.17;;
41343;SDS011;27089;50.022;7.604;2024-03-23T11:40:33;5.93;;;2.93;;
41343;SDS011;27089;50.022;7.604;2024-03-23T11:43:01;8.10;;;3.40;;
41343;SDS011;27089;50.022;7.604;2024-03-23T11:45:28;7.00;;;3.07;;
41343;SDS011;27089;50.022;7.604;2024-03-23T11:48:06;6.37;;;3.00;;
41343;SDS011;27089;50.022;7.604;2024-03-23T11:50:33;8.40;;;3.60;;
41343;SDS011;27089;50.022;7.604;2024-03-23T11:53:09;8.00;;;2.90;;
41343;SDS011;27089;50.022;7.604;2024-03-23T11:55:41;7.50;;;2.80;;
41343;SDS011;27089;50.022;7.604;2024-03-23T11:58:10;8.83;;;2.73;;
41343;SDS011;27089;50.022;7.604;2024-03-23T12:00:36;4.77;;;2.20;;
41343;SDS011;27089;50.022;7.604;2024-03-23T12:03:04;2.13;;;1.13;;
41343;SDS011;27089;50.022;7.604;2024-03-23T12:05:31;1.53;;;1.00;;
41343;SDS011;27089;50.022;7.604;2024-03-23T12:08:17;2.10;;;0.97;;
41343;SDS011;27089;50.022;7.604;2024-03-23T12:10:47;2.30;;;1.03;;
41343;SDS011;27089;50.022;7.604;2024-03-23T12:13:18;1.13;;;0.80;;
41343;SDS011;27089;50.022;7.604;2024-03-23T12:15:45;1.60;;;0.43;;
41343;SDS011;27089;50.022;7.604;2024-03-23T12:18:13;3.80;;;0.70;;
41343;SDS011;27089;50.022;7.604;2024-03-23T12:20:39;1.90;;;0.93;;
41343;SDS011;27089;50.022;7.604;2024-03-23T12:23:07;3.10;;;2.07;;
41343;SDS011;27089;50.022;7.604;2024-03-23T12:25:34;1.57;;;0.60;;
41343;SDS011;27089;50.022;7.604;2024-03-23T12:28:03;1.00;;;0.50;;
41343;SDS011;27089;50.022;7.604;2024-03-23T12:30:31;1.83;;;0.50;;
41343;SDS011;27089;50.022;7.604;2024-03-23T12:32:59;0.77;;;0.50;;
41343;SDS011;27089;50.022;7.604;2024-03-23T12:35:25;0.97;;;0.60;;
41343;SDS011;27089;50.022;7.604;2024-03-23T12:37:52;1.43;;;0.80;;
41343;SDS011;27089;50.022;7.604;2024-03-23T12:40:18;4.60;;;2.20;;
41343;SDS011;27089;50.022;7.604;2024-03-23T12:42:45;6.67;;;3.07;;
41343;SDS011;27089;50.022;7.604;2024-03-23T12:45:12;6.80;;;3.27;;
41343;SDS011;27089;50.022;7.604;2024-03-23T12:47:40;1.07;;;0.70;;
41343;SDS011;27089;50.022;7.604;2024-03-23T12:50:06;1.03;;;0.80;;
41343;SDS011;27089;50.022;7.604;2024-03-23T12:52:34;3.60;;;1.27;;
41343;SDS011;27089;50.022;7.604;2024-03-23T12:55:00;5.50;;;3.10;;
41343;SDS011;27089;50.022;7.604;2024-03-23T12:57:28;0.70;;;0.70;;
41343;SDS011;27089;50.022;7.604;2024-03-23T12:59:54;0.80;;;0.60;;
41343;SDS011;27089;50.022;7.604;2024-03-23T13:02:22;2.40;;;0.70;;
41343;SDS011;27089;50.022;7.604;2024-03-23T13:04:49;3.10;;;0.80;;
41343;SDS011;27089;50.022;7.604;2024-03-23T13:07:17;1.80;;;0.70;;
41343;SDS011;27089;50.022;7.604;2024-03-23T13:09:44;1.70;;;0.67;;
41343;SDS011;27089;50.022;7.604;2024-03-23T13:12:11;1.40;;;0.70;;
41343;SDS011;27089;50.022;7.604;2024-03-23T13:14:38;2.47;;;0.80;;
41343;SDS011;27089;50.022;7.604;2024-03-23T13:17:05;1.90;;;0.73;;
41343;SDS011;27089;50.022;7.604;2024-03-23T13:19:33;2.63;;;0.90;;
41343;SDS011;27089;50.022;7.604;2024-03-23T13:22:02;2.50;;;0.70;;
41343;SDS011;27089;50.022;7.604;2024-03-23T13:24:29;2.60;;;0.80;;
41343;SDS011;27089;50.022;7.604;2024-03-23T13:26:56;5.73;;;0.80;;
41343;SDS011;27089;50.022;7.604;2024-03-23T13:29:23;3.37;;;0.63;;
41343;SDS011;27089;50.022;7.604;2024-03-23T13:31:51;1.63;;;0.80;;
41343;SDS011;27089;50.022;7.604;2024-03-23T13:34:17;1.93;;;0.80;;
41343;SDS011;27089;50.022;7.604;2024-03-23T13:36:46;3.70;;;0.80;;
41343;SDS011;27089;50.022;7.604;2024-03-23T13:39:13;2.93;;;0.90;;
41343;SDS011;27089;50.022;7.604;2024-03-23T13:41:41;2.13;;;0.87;;
41343;SDS011;27089;50.022;7.604;2024-03-23T13:44:09;2.67;;;0.77;;
41343;SDS011;27089;50.022;7.604;2024-03-23T13:46:37;1.67;;;0.90;;
41343;SDS011;27089;50.022;7.604;2024-03-23T13:49:04;3.13;;;0.80;;
41343;SDS011;27089;50.022;7.604;2024-03-23T13:51:31;1.87;;;0.87;;
41343;SDS011;27089;50.022;7.604;2024-03-23T13:53:59;2.00;;;0.80;;
41343;SDS011;27089;50.022;7.604;2024-03-23T13:56:27;1.93;;;0.60;;
41343;SDS011;27089;50.022;7.604;2024-03-23T13:58:54;2.07;;;0.70;;
41343;SDS011;27089;50.022;7.604;2024-03-23T14:01:23;1.80;;;0.80;;
41343;SDS011;27089;50.022;7.604;2024-03-23T14:03:49;1.87;;;0.70;;
41343;SDS011;27089;50.022;7.604;2024-03-23T14:06:17;1.93;;;0.80;;
41343;SDS011;27089;50.022;7.604;2024-03-23T14:08:43;1.27;;;0.70;;
41343;SDS011;27089;50.022;7.604;2024-03-23T14:11:11;2.17;;;0.70;;
41343;SDS011;27089;50.022;7.604;2024-03-23T14:13:37;1.97;;;0.80;;
41343;SDS011;27089;50.022;7.604;2024-03-23T14:16:05;1.87;;;1.00;;
41343;SDS011;27089;50.022;7.604;2024-03-23T14:18:32;3.03;;;0.67;;
41343;SDS011;27089;50.022;7.604;2024-03-23T14:20:59;5.07;;;2.67;;
41343;SDS011;27089;50.022;7.604;2024-03-23T14:23:26;7.53;;;4.33;;
41343;SDS011;27089;50.022;7.604;2024-03-23T14:25:54;5.50;;;3.57;;
41343;SDS011;27089;50.022;7.604;2024-03-23T14:28:22;2.20;;;0.90;;
41343;SDS011;27089;50.022;7.604;2024-03-23T14:30:49;3.00;;;1.20;;
41343;SDS011;27089;50.022;7.604;2024-03-23T14:33:15;5.80;;;1.93;;
41343;SDS011;27089;50.022;7.604;2024-03-23T14:35:43;9.53;;;4.67;;
41343;SDS011;27089;50.022;7.604;2024-03-23T14:38:16;3.83;;;3.07;;
41343;SDS011;27089;50.022;7.604;2024-03-23T14:40:43;2.63;;;1.33;;
41343;SDS011;27089;50.022;7.604;2024-03-23T14:43:09;3.10;;;1.40;;
41343;SDS011;27089;50.022;7.604;2024-03-23T14:45:38;2.27;;;1.20;;
41343;SDS011;27089;50.022;7.604;2024-03-23T14:48:29;2.13;;;1.33;;
41343;SDS011;27089;50.022;7.604;2024-03-23T14:50:57;4.57;;;1.60;;
41343;SDS011;27089;50.022;7.604;2024-03-23T14:53:23;2.50;;;1.00;;
41343;SDS011;27089;50.022;7.604;2024-03-23T14:55:53;2.13;;;1.10;;
41343;SDS011;27089;50.022;7.604;2024-03-23T14:58:20;2.47;;;1.70;;
41343;SDS011;27089;50.022;7.604;2024-03-23T15:00:49;2.67;;;1.10;;
41343;SDS011;27089;50.022;7.604;2024-03-23T15:03:15;1.50;;;1.10;;
41343;SDS011;27089;50.022;7.604;2024-03-23T15:05:42;1.43;;;0.90;;
41343;SDS011;27089;50.022;7.604;2024-03-23T15:08:16;1.27;;;0.80;;
41343;SDS011;27089;50.022;7.604;2024-03-23T15:10:43;2.40;;;0.90;;
41343;SDS011;27089;50.022;7.604;2024-03-23T15:13:09;2.23;;;0.87;;
41343;SDS011;27089;50.022;7.604;2024-03-23T15:15:38;1.67;;;0.90;;
41343;SDS011;27089;50.022;7.604;2024-03-23T15:18:07;2.47;;;1.07;;
41343;SDS011;27089;50.022;7.604;2024-03-23T15:20:34;1.20;;;0.83;;
41343;SDS011;27089;50.022;7.604;2024-03-23T15:23:01;1.97;;;0.70;;
41343;SDS011;27089;50.022;7.604;2024-03-23T15:25:28;2.40;;;0.70;;
41343;SDS011;27089;50.022;7.604;2024-03-23T15:27:54;1.00;;;0.60;;
41343;SDS011;27089;50.022;7.604;2024-03-23T15:30:23;2.67;;;0.80;;
41343;SDS011;27089;50.022;7.604;2024-03-23T15:32:49;1.23;;;0.73;;
41343;SDS011;27089;50.022;7.604;2024-03-23T15:35:18;2.27;;;0.60;;
41343;SDS011;27089;50.022;7.604;2024-03-23T15:37:46;3.37;;;0.70;;
41343;SDS011;27089;50.022;7.604;2024-03-23T15:40:13;1.87;;;0.60;;